Etusivu
METAR-TAF:

METAR-TAF

Lentoasemat :

Morlaix, Ranska

Leveyspiiri: 48-36N, Pituuspiiri: 3-49W, korkeus merenpinnasta: 84 m

Tämänhetkinen sää

Tämä raportti tehtiin 23 minuuttia sitten, kello 06.30 UTC
Tuuli 2 kn idästä
Lämpötila 6°C
Kosteus 93%
Ilmanpaine 1027 hPa
Näkyvyys: 0600 m
Hajanaisia pilviä 400 ft:n korkeudessa
sumua

METAR: LFRU 210630Z AUTO 08002KT 0650 0600 FG SCT004 06/05 Q1027

Aika: 08:53 (06:53 UTC)


TAF: puuttuu

Säähavainnot ja -ennusteet yli 4000 lentoasemalta (METAR- ja TAF-raportit).

Käytössä olevat sääasemat on merkitty karttaan keltaisilla ja punaisilla pisteillä.

Aseta hiiri pisteen päälle nähdäksesi sääaseman nimen.

Klikkaa sitten nähdäksesi säähavainnot ja -ennusteet.

Kartan vaihtaminen: klikkaa mustalla rastilla varustettuja vihreitä pisteitä, niin voit zoomata sisään; viivalla varustettua vihreää pistettä, niin voit zoomata ulos tai vihreitä nuolia, niin pääset viereisille kartoille.


METAR-TAF: